createdAt,value
2023-05-18T00:03:11.485Z,70.04
2023-05-18T00:08:14.181Z,70.23
2023-05-18T00:13:16.779Z,70.42
2023-05-18T00:18:23.938Z,70.84
2023-05-18T00:23:30.803Z,70.97
2023-05-18T00:28:33.826Z,71.67
2023-05-18T00:33:36.388Z,71.74
2023-05-18T00:38:39.049Z,71.80
2023-05-18T00:43:41.742Z,71.72
2023-05-18T00:48:44.945Z,72.03
2023-05-18T00:53:47.882Z,71.89
2023-05-18T00:58:57.476Z,72.23
2023-05-18T01:04:04.052Z,72.24
2023-05-18T01:09:12.350Z,72.47
2023-05-18T01:14:39.179Z,72.65
2023-05-18T01:20:07.171Z,73.28
2023-05-18T01:25:25.151Z,73.60
2023-05-18T01:30:28.029Z,73.69
2023-05-18T01:35:30.909Z,73.90
2023-05-18T01:40:41.932Z,74.20
2023-05-18T01:45:48.835Z,74.25
2023-05-18T01:50:57.372Z,74.19
2023-05-18T01:56:01.232Z,74.69
2023-05-18T02:01:05.187Z,74.83
2023-05-18T02:06:07.796Z,75.13
2023-05-18T02:11:10.579Z,75.28
2023-05-18T02:16:13.721Z,75.86
2023-05-18T02:21:16.571Z,76.25
2023-05-18T02:26:19.229Z,77.25
2023-05-18T02:31:21.981Z,77.60
2023-05-18T02:36:24.814Z,78.27
2023-05-18T02:41:27.413Z,78.81
2023-05-18T02:46:30.640Z,78.95
2023-05-18T02:51:33.432Z,79.19
2023-05-18T02:56:36.442Z,79.30
2023-05-18T03:01:41.039Z,79.33
2023-05-18T03:06:46.593Z,79.51
2023-05-18T03:11:49.518Z,79.87
2023-05-18T03:16:54.270Z,79.66
2023-05-18T03:21:57.917Z,79.89
2023-05-18T03:27:00.984Z,80.33
2023-05-18T03:32:03.829Z,79.82
2023-05-18T03:37:06.566Z,79.48
2023-05-18T03:42:09.299Z,79.46
2023-05-18T03:47:11.906Z,79.15
2023-05-18T03:52:15.911Z,78.72
2023-05-18T03:57:18.922Z,78.49
2023-05-18T04:02:21.636Z,78.31
2023-05-18T04:07:24.448Z,77.90
2023-05-18T04:12:27.098Z,77.46
2023-05-18T04:17:29.681Z,76.83
2023-05-18T04:22:32.277Z,76.35
2023-05-18T04:27:34.837Z,75.88
2023-05-18T04:32:39.142Z,75.11
2023-05-18T04:37:42.839Z,74.61
2023-05-18T04:42:48.299Z,73.67
2023-05-18T04:47:54.722Z,73.61
2023-05-18T04:52:58.380Z,72.63
2023-05-18T04:58:01.553Z,72.04
2023-05-18T05:03:04.325Z,71.24
2023-05-18T05:08:07.310Z,70.64
2023-05-18T05:13:09.955Z,69.43
2023-05-18T05:18:12.630Z,69.20
2023-05-18T05:23:15.507Z,68.65
2023-05-18T05:28:18.103Z,68.38
2023-05-18T05:33:20.716Z,67.61
2023-05-18T05:38:23.413Z,66.82
2023-05-18T05:43:26.323Z,66.91
2023-05-18T05:48:28.981Z,65.31
2023-05-18T05:53:31.609Z,64.11
2023-05-18T05:58:34.203Z,63.56
2023-05-18T06:03:37.325Z,62.48
2023-05-18T06:08:40.072Z,62.56
2023-05-18T06:13:42.726Z,61.71
2023-05-18T06:18:45.432Z,61.07
2023-05-18T06:23:48.144Z,61.07
2023-05-18T06:28:50.885Z,61.31
2023-05-18T06:33:53.530Z,60.06
2023-05-18T06:38:56.157Z,59.73
2023-05-18T06:44:00.413Z,57.89
2023-05-18T06:49:03.130Z,58.23
2023-05-18T06:54:05.803Z,58.19
2023-05-18T06:59:08.411Z,57.54
2023-05-18T07:04:11.203Z,55.87
2023-05-18T07:09:13.907Z,56.84
2023-05-18T07:14:16.561Z,57.06
2023-05-18T07:19:19.242Z,55.85
2023-05-18T07:24:21.909Z,54.82
2023-05-18T07:29:24.816Z,54.03
2023-05-18T07:34:27.489Z,54.34
2023-05-18T07:39:32.976Z,53.23
2023-05-18T07:44:35.707Z,53.01
2023-05-18T07:49:39.609Z,52.38
2023-05-18T07:54:42.251Z,52.36
2023-05-18T07:59:45.194Z,52.46
2023-05-18T08:04:48.267Z,51.08
2023-05-18T08:09:50.972Z,50.20
2023-05-18T08:14:53.631Z,49.09
2023-05-18T08:19:56.952Z,48.16
2023-05-18T08:25:00.981Z,47.43
2023-05-18T08:30:03.889Z,47.45
2023-05-18T08:35:08.325Z,47.46
2023-05-18T08:40:12.346Z,47.42
2023-05-18T08:45:35.984Z,46.28
2023-05-18T08:50:41.957Z,45.78
2023-05-18T08:55:46.361Z,45.54
2023-05-18T09:00:53.904Z,45.25
2023-05-18T09:05:59.937Z,45.44
2023-05-18T09:11:03.854Z,45.92
2023-05-18T09:16:08.041Z,45.54
2023-05-18T09:21:11.414Z,44.86
2023-05-18T09:26:14.135Z,44.15
2023-05-18T09:31:18.969Z,44.50
2023-05-18T09:36:26.380Z,43.50
2023-05-18T09:41:30.599Z,43.81
2023-05-18T09:46:36.221Z,44.37
2023-05-18T09:51:39.441Z,43.78
2023-05-18T10:02:02.311Z,43.38
2023-05-18T10:07:15.985Z,43.18
2023-05-18T10:12:22.301Z,42.53
2023-05-18T10:17:28.100Z,41.24
2023-05-18T10:22:31.006Z,40.78
2023-05-18T10:27:35.463Z,41.80
2023-05-18T10:32:39.412Z,39.11
2023-05-18T10:37:48.588Z,38.09
2023-05-18T10:42:52.232Z,36.81
2023-05-18T10:47:57.207Z,36.25
2023-05-18T10:53:00.828Z,36.32
2023-05-18T10:58:14.104Z,35.56
2023-05-18T11:03:18.692Z,34.97
2023-05-18T11:08:28.629Z,35.92
2023-05-18T11:13:33.013Z,35.33
2023-05-18T11:18:38.275Z,33.89
2023-05-18T11:23:41.037Z,33.17
2023-05-18T11:28:47.858Z,32.62
2023-05-18T11:33:52.109Z,31.10
2023-05-18T11:39:04.457Z,31.09
2023-05-18T11:44:14.843Z,30.97
2023-05-18T11:49:20.301Z,31.12
2023-05-18T11:54:25.008Z,30.55
2023-05-18T11:59:36.376Z,30.68
2023-05-18T12:04:48.362Z,30.49
2023-05-18T12:09:51.325Z,30.40
2023-05-18T12:14:59.695Z,29.78
2023-05-18T12:20:02.747Z,30.35
2023-05-18T12:25:06.627Z,30.71
2023-05-18T12:30:12.209Z,30.09
2023-05-18T12:35:15.180Z,30.10
2023-05-18T12:40:19.410Z,30.66
2023-05-18T12:45:31.792Z,30.81
2023-05-18T12:50:35.511Z,30.15
2023-05-18T12:55:39.348Z,29.20
2023-05-18T13:00:44.361Z,29.06
2023-05-18T13:06:02.662Z,29.82
2023-05-18T13:11:14.721Z,29.84
2023-05-18T13:16:17.849Z,29.46
2023-05-18T13:21:20.572Z,29.71
2023-05-18T13:26:25.279Z,29.54
2023-05-18T13:31:29.639Z,29.38
2023-05-18T13:36:35.708Z,28.51
2023-05-18T13:41:38.359Z,28.20
2023-05-18T13:46:41.012Z,28.72
2023-05-18T13:51:43.757Z,27.96
2023-05-18T13:56:46.897Z,27.38
2023-05-18T14:01:49.684Z,27.15
2023-05-18T14:06:55.908Z,26.52
2023-05-18T14:12:00.099Z,25.69
2023-05-18T14:17:03.227Z,24.96
2023-05-18T14:22:06.086Z,25.70
2023-05-18T14:27:08.640Z,25.29
2023-05-18T14:32:11.254Z,24.35
2023-05-18T14:37:13.918Z,23.53
2023-05-18T14:42:16.768Z,23.50
2023-05-18T14:47:19.393Z,23.70
2023-05-18T14:52:22.039Z,23.74
2023-05-18T14:57:26.680Z,24.58
2023-05-18T15:02:30.030Z,24.72
2023-05-18T15:07:32.876Z,24.79
2023-05-18T15:12:35.870Z,24.59
2023-05-18T15:17:38.425Z,24.81
2023-05-18T15:22:41.378Z,25.77
2023-05-18T15:27:44.045Z,26.15
2023-05-18T15:32:47.099Z,26.07
2023-05-18T15:37:50.285Z,26.12
2023-05-18T15:42:52.875Z,27.46
2023-05-18T15:47:55.849Z,28.51
2023-05-18T15:52:58.536Z,28.84
2023-05-18T15:58:01.299Z,29.57
2023-05-18T16:03:04.013Z,29.74
2023-05-18T16:08:06.685Z,30.45
2023-05-18T16:13:09.235Z,31.61
2023-05-18T16:18:12.132Z,32.61
2023-05-18T16:23:14.767Z,33.05
2023-05-18T16:28:17.449Z,34.29
2023-05-18T16:33:20.110Z,35.94
2023-05-18T16:38:22.778Z,37.00
2023-05-18T16:43:25.346Z,37.89
2023-05-18T16:48:28.055Z,38.41
2023-05-18T16:53:30.780Z,39.30
2023-05-18T16:58:33.372Z,39.49
2023-05-18T17:03:36.063Z,40.02
2023-05-18T17:08:38.727Z,40.45
2023-05-18T17:13:41.365Z,41.41
2023-05-18T17:18:44.059Z,42.39
2023-05-18T17:23:46.684Z,42.82
2023-05-18T17:28:49.333Z,43.68
2023-05-18T17:33:51.953Z,44.61
2023-05-18T17:38:54.670Z,45.24
2023-05-18T17:43:57.201Z,46.00
2023-05-18T17:49:02.038Z,46.51
2023-05-18T17:54:04.889Z,47.02
2023-05-18T17:59:07.639Z,47.36
2023-05-18T18:04:10.332Z,48.07
2023-05-18T18:09:13.034Z,48.97
2023-05-18T18:14:17.214Z,49.65
2023-05-18T18:19:19.970Z,50.00
2023-05-18T18:24:23.695Z,50.73
2023-05-18T18:29:29.706Z,51.23
2023-05-18T18:34:32.343Z,51.95
2023-05-18T18:39:35.347Z,52.30
2023-05-18T18:44:38.276Z,52.83
2023-05-18T18:49:40.909Z,53.10
2023-05-18T18:54:43.682Z,53.82
2023-05-18T18:59:46.376Z,54.29
2023-05-18T19:04:49.259Z,54.83
2023-05-18T19:09:52.823Z,55.07
2023-05-18T19:14:55.508Z,55.67
2023-05-18T19:19:59.667Z,56.68
2023-05-18T19:25:02.744Z,56.44
2023-05-18T19:30:07.253Z,56.21
2023-05-18T19:35:09.944Z,56.08
2023-05-18T19:40:12.739Z,56.18
2023-05-18T19:45:15.400Z,55.99
2023-05-18T19:50:18.175Z,56.15
2023-05-18T19:55:21.058Z,56.05
2023-05-18T20:00:23.841Z,56.13
2023-05-18T20:05:26.406Z,56.19
2023-05-18T20:10:29.431Z,56.25
2023-05-18T20:15:34.827Z,56.32
2023-05-18T20:20:37.661Z,56.39
2023-05-18T20:25:40.325Z,56.33
2023-05-18T20:30:43.272Z,56.56
2023-05-18T20:35:46.265Z,56.55
2023-05-18T20:40:50.909Z,56.78
2023-05-18T20:45:53.583Z,57.33
2023-05-18T20:50:56.151Z,57.17
2023-05-18T20:56:01.153Z,57.28
2023-05-18T21:01:10.843Z,57.43
2023-05-18T21:06:14.263Z,57.26
2023-05-18T21:11:16.828Z,57.66
2023-05-18T21:16:19.394Z,57.66
2023-05-18T21:21:22.142Z,57.44
2023-05-18T21:26:24.873Z,57.62
2023-05-18T21:31:27.980Z,57.75
2023-05-18T21:36:36.444Z,57.54
2023-05-18T21:41:40.381Z,57.79
2023-05-18T21:46:42.998Z,57.94
2023-05-18T21:51:45.555Z,57.96
2023-05-18T21:56:48.266Z,58.09
2023-05-18T22:01:50.847Z,58.36
2023-05-18T22:06:54.382Z,58.32
2023-05-18T22:11:57.544Z,58.54
2023-05-18T22:17:00.346Z,58.60
2023-05-18T22:22:02.986Z,58.93
2023-05-18T22:27:05.870Z,58.85
2023-05-18T22:32:08.653Z,59.11
2023-05-18T22:37:11.263Z,59.42
2023-05-18T22:42:13.848Z,59.49
2023-05-18T22:47:20.032Z,59.41
2023-05-18T22:52:22.832Z,60.26
2023-05-18T22:57:25.475Z,60.15
2023-05-18T23:02:28.235Z,60.22
2023-05-18T23:07:32.031Z,60.25
2023-05-18T23:12:34.731Z,60.59
2023-05-18T23:17:39.520Z,60.57
2023-05-18T23:22:42.226Z,60.47
2023-05-18T23:27:45.432Z,60.58
2023-05-18T23:32:48.971Z,60.76
2023-05-18T23:37:53.546Z,60.79
2023-05-18T23:42:56.598Z,60.86
2023-05-18T23:47:59.536Z,60.79
2023-05-18T23:53:03.400Z,60.62
2023-05-18T23:58:06.301Z,60.67
